Flight Track Log - Related Links

Times and Time Zones

All times are in EDT time to prevent confusion due to time zone crossing. See the UCA3596 flight status page for this flight to view local times or setup timezone preferences in your user account.

Time Position Orientation Groundspeed Altitude Reporting Facility
EDT Latitude Longitude Course Direction KTS MPH feet Rate Location/Type
Sun 01:10:00 PM 39.3746 -77.2745 19° North  Level Estimated
Sun 01:11:00 PM 39.4388 -77.2464 19° North  Level Estimated
Sun 01:12:00 PM 39.5030 -77.2183 19° North  Level Estimated
Sun 01:13:00 PM 39.5671 -77.1901 19° North  Level Estimated
Sun 01:14:00 PM 39.6313 -77.1619 19° North  Level Estimated
Sun 01:15:00 PM 39.6955 -77.1336 19° North  Level Estimated
Sun 01:16:00 PM 39.7596 -77.1053 19° North  Level Estimated
Sun 01:17:00 PM 39.8238 -77.0769 19° North  Level Estimated
Sun 01:18:00 PM 39.8879 -77.0485 19° North  Level Estimated
Sun 01:19:00 PM 39.9520 -77.0200 19° North  Level Estimated
Sun 01:20:00 PM 40.0162 -76.9914 19° North  Level Estimated
Sun 01:21:00 PM 40.0803 -76.9628 19° North  Level Estimated
Sun 01:22:00 PM 40.1444 -76.9342 19° North  Level Estimated
Sun 01:23:00 PM 40.2085 -76.9055 19° North  Level Estimated
Sun 01:24:00 PM 40.2726 -76.8767 19° North  Level Estimated
Sun 01:25:00 PM 40.3367 -76.8479 19° North  Level Estimated
Sun 01:26:00 PM 40.4008 -76.8190 19° North  Level Estimated
Sun 01:27:00 PM 40.4649 -76.7901 19° North  Level Estimated
Sun 01:28:00 PM 40.5289 -76.7611 19° North  Level Estimated
Sun 01:29:00 PM 40.5930 -76.7321 19° North  Level Estimated
Sun 01:30:00 PM 40.6570 -76.7030 19° North  Level Estimated
Sun 01:31:00 PM 40.7211 -76.6738 19° North  Level Estimated
Sun 01:32:00 PM 40.7851 -76.6446 19° North  Level Estimated
Sun 01:33:00 PM 40.8492 -76.6154 19° North  Level Estimated
Sun 01:34:00 PM 40.9132 -76.5861 19° North  Level Estimated
Sun 01:35:00 PM 40.9772 -76.5567 19° North  Level Estimated
Sun 01:36:00 PM 41.0412 -76.5273 19° North  Level Estimated
Sun 01:37:00 PM 41.1052 -76.4978 19° North  Level Estimated
Sun 01:38:00 PM 41.1692 -76.4682 19° North  Level Estimated
Sun 01:39:00 PM 41.2332 -76.4386 19° North  Level Estimated
Sun 01:40:00 PM 41.2972 -76.4090 19° North  Level Estimated
Sun 01:41:00 PM 41.3611 -76.3792 19° North  Level Estimated
Sun 01:42:00 PM 41.4251 -76.3494 19° North  Level Estimated
Sun 01:43:00 PM 41.4891 -76.3196 19° North  Level Estimated
Sun 01:44:00 PM 41.5530 -76.2897 19° North  Level Estimated
Sun 01:45:00 PM 41.6169 -76.2598 19° North  Level Estimated
Sun 01:46:00 PM 41.6809 -76.2297 19° North  Level Estimated
Sun 01:47:00 PM 41.7448 -76.1997 19° North  Level Estimated
Sun 01:48:00 PM 41.8087 -76.1695 19° North  Level Estimated
Sun 01:49:00 PM 41.8726 -76.1393 19° North  Level Estimated
Sun 01:50:00 PM 41.9365 -76.1091 19° North  Level Estimated
Sun 01:51:00 PM 42.0004 -76.0788 19° North  Level Estimated
Sun 01:52:00 PM 42.0643 -76.0484 19° North  Level Estimated
Sun 01:53:00 PM 42.1282 -76.0179 19° North  Level Estimated
Sun 01:54:00 PM 42.1921 -75.9874 19° North  Level Estimated
Sun 01:55:00 PM 42.2084 -75.9796 19° North  Level Estimated
Sun 01:56:00 PM 42.2084 -75.9796 35° Northeast  Level Estimated
Sun 01:57:00 PM 42.2084 -75.9796 35° Northeast  Level Estimated
Sun 01:58:00 PM 42.2084 -75.9796 35° Northeast  Level Estimated
Sun 01:59:00 PM 42.2084 -75.9796 35° Northeast  Level Estimated
Sun 02:00:00 PM 42.2084 -75.9796 35° Northeast  Level Estimated
Sun 02:01:00 PM 42.2084 -75.9796 35° Northeast  Level Estimated
Sun 02:02:00 PM 42.2084 -75.9796 35° Northeast  Level Estimated
Sun 02:03:00 PM 42.2084 -75.9796 35° Northeast  Level Estimated
Sun 02:04:00 PM 42.2084 -75.9796 35° Northeast  Level Estimated
Sun 02:05:00 PM 42.2084 -75.9796 35° Northeast  Level Estimated
Sun 02:06:00 PM 42.2084 -75.9796 35° Northeast  Level Estimated
Sun 02:07:00 PM 42.2084 -75.9796 35° Northeast  Level Estimated
Sun 02:08:00 PM 42.2084 -75.9796 35° Northeast  Level Estimated

Login

Don't have an account? Register now (free) for customized features, flight alerts, and more!